createdAt,value
2018-12-09T00:00:16.779Z,989.74
2018-12-09T00:01:16.802Z,989.69
2018-12-09T00:02:37.863Z,989.67
2018-12-09T00:03:16.848Z,989.62
2018-12-09T00:04:16.887Z,989.58
2018-12-09T00:05:16.908Z,989.55
2018-12-09T00:06:16.924Z,989.55
2018-12-09T00:07:16.946Z,989.53
2018-12-09T00:08:37.967Z,989.43
2018-12-09T00:09:16.963Z,989.38
2018-12-09T00:10:16.998Z,989.42
2018-12-09T00:11:17.015Z,989.37
2018-12-09T00:12:17.053Z,989.34
2018-12-09T00:13:17.059Z,989.30
2018-12-09T00:14:38.603Z,989.28
2018-12-09T00:15:17.112Z,989.27
2018-12-09T00:16:17.117Z,989.22
2018-12-09T00:17:17.145Z,989.22
2018-12-09T00:18:17.156Z,989.14
2018-12-09T00:19:17.170Z,989.07
2018-12-09T00:20:38.205Z,989.12
2018-12-09T00:21:17.333Z,989.07
2018-12-09T00:22:17.342Z,989.01
2018-12-09T00:23:17.265Z,988.97
2018-12-09T00:24:17.274Z,988.93
2018-12-09T00:25:17.319Z,988.90
2018-12-09T00:26:38.351Z,988.94
2018-12-09T00:27:17.377Z,988.88
2018-12-09T00:28:17.374Z,988.85
2018-12-09T00:29:17.379Z,988.83
2018-12-09T00:30:17.416Z,988.76
2018-12-09T00:31:17.420Z,988.77
2018-12-09T00:32:38.454Z,988.75
2018-12-09T00:33:17.470Z,988.73
2018-12-09T00:34:17.484Z,988.69
2018-12-09T00:35:17.520Z,988.69
2018-12-09T00:36:17.539Z,988.65
2018-12-09T00:37:17.566Z,988.59
2018-12-09T00:38:38.649Z,988.57
2018-12-09T00:39:17.589Z,988.52
2018-12-09T00:40:17.619Z,988.54
2018-12-09T00:41:17.640Z,988.50
2018-12-09T00:42:17.676Z,988.38
2018-12-09T00:43:17.691Z,988.41
2018-12-09T00:44:38.713Z,988.37
2018-12-09T00:45:17.727Z,988.38
2018-12-09T00:46:17.733Z,988.35
2018-12-09T00:47:17.775Z,988.32
2018-12-09T00:48:17.787Z,988.30
2018-12-09T00:49:17.799Z,988.27
2018-12-09T00:50:38.868Z,988.28
2018-12-09T00:51:17.867Z,988.24
2018-12-09T00:52:17.863Z,988.22
2018-12-09T00:53:17.889Z,988.19
2018-12-09T00:54:17.913Z,988.17
2018-12-09T00:55:18.025Z,988.19
2018-12-09T00:56:38.983Z,988.11
2018-12-09T00:57:18.001Z,988.09
2018-12-09T00:58:18.000Z,988.09
2018-12-09T00:59:18.002Z,988.02
2018-12-09T01:00:18.035Z,987.98
2018-12-09T01:01:18.050Z,987.95
2018-12-09T01:02:39.088Z,988.00
2018-12-09T01:03:18.101Z,987.96
2018-12-09T01:04:18.102Z,987.94
2018-12-09T01:05:18.152Z,987.95
2018-12-09T01:06:18.154Z,987.93
2018-12-09T01:07:18.187Z,987.91
2018-12-09T01:08:39.264Z,987.85
2018-12-09T01:09:18.227Z,987.83
2018-12-09T01:10:18.257Z,987.78
2018-12-09T01:11:18.264Z,987.69
2018-12-09T01:12:18.307Z,987.67
2018-12-09T01:13:18.315Z,987.58
2018-12-09T01:14:39.340Z,987.57
2018-12-09T01:15:18.358Z,987.47
2018-12-09T01:16:18.359Z,987.50
2018-12-09T01:17:18.383Z,987.39
2018-12-09T01:18:18.421Z,987.30
2018-12-09T01:19:18.421Z,987.32
2018-12-09T01:20:39.469Z,987.10
2018-12-09T01:21:18.473Z,987.20
2018-12-09T01:22:18.507Z,987.07
2018-12-09T01:23:18.514Z,987.15
2018-12-09T01:24:18.537Z,987.16
2018-12-09T01:25:18.558Z,987.22
2018-12-09T01:26:39.598Z,987.06
2018-12-09T01:27:18.605Z,986.99
2018-12-09T01:28:18.618Z,987.01
2018-12-09T01:29:18.674Z,986.93
2018-12-09T01:30:18.668Z,986.95
2018-12-09T01:31:18.678Z,986.95
2018-12-09T01:32:39.714Z,986.84
2018-12-09T01:33:18.723Z,986.85
2018-12-09T01:34:18.736Z,986.84
2018-12-09T01:35:18.810Z,986.90
2018-12-09T01:36:18.802Z,986.88
2018-12-09T01:37:18.818Z,986.87
2018-12-09T01:38:39.858Z,986.89
2018-12-09T01:39:18.868Z,986.76
2018-12-09T01:40:18.870Z,986.72
2018-12-09T01:41:18.880Z,986.63
2018-12-09T01:42:18.933Z,986.71
2018-12-09T01:43:18.935Z,986.63
2018-12-09T01:44:39.969Z,986.63
2018-12-09T01:45:18.991Z,986.65
2018-12-09T01:46:18.991Z,986.59
2018-12-09T01:47:19.027Z,986.56
2018-12-09T01:48:19.029Z,986.56
2018-12-09T01:49:19.082Z,986.48
2018-12-09T01:50:40.118Z,986.46
2018-12-09T01:51:19.101Z,986.49
2018-12-09T01:52:19.134Z,986.41
2018-12-09T01:53:19.141Z,986.39
2018-12-09T01:54:19.176Z,986.39
2018-12-09T01:55:19.191Z,986.33
2018-12-09T01:56:40.222Z,986.33
2018-12-09T01:57:19.229Z,986.35
2018-12-09T01:58:19.246Z,986.30
2018-12-09T01:59:19.276Z,986.31
2018-12-09T02:00:19.294Z,986.30
2018-12-09T02:01:19.294Z,986.36
2018-12-09T02:02:40.331Z,986.29
2018-12-09T02:03:19.342Z,986.25
2018-12-09T02:04:19.396Z,986.30
2018-12-09T02:05:19.398Z,986.25
2018-12-09T02:06:19.406Z,986.15
2018-12-09T02:07:19.446Z,986.14
2018-12-09T02:08:40.470Z,986.10
2018-12-09T02:09:19.478Z,986.12
2018-12-09T02:10:19.531Z,986.10
2018-12-09T02:11:19.508Z,986.07
2018-12-09T02:12:19.581Z,986.03
2018-12-09T02:13:19.555Z,986.02
2018-12-09T02:14:40.596Z,985.97
2018-12-09T02:15:19.609Z,986.00
2018-12-09T02:16:19.633Z,985.99
2018-12-09T02:17:19.676Z,986.02
2018-12-09T02:18:19.689Z,986.01
2018-12-09T02:19:19.706Z,985.96
2018-12-09T02:20:40.718Z,985.98
2018-12-09T02:21:19.745Z,985.91
2018-12-09T02:22:19.789Z,985.91
2018-12-09T02:23:19.761Z,985.88
2018-12-09T02:24:19.791Z,985.80
2018-12-09T02:25:19.817Z,985.82
2018-12-09T02:26:40.841Z,985.85
2018-12-09T02:27:19.851Z,985.84
2018-12-09T02:28:19.868Z,985.80
2018-12-09T02:29:19.893Z,985.81
2018-12-09T02:30:19.924Z,985.80
2018-12-09T02:31:19.946Z,985.79
2018-12-09T02:32:41.031Z,985.71
2018-12-09T02:33:20.058Z,985.75
2018-12-09T02:34:20.015Z,985.67
2018-12-09T02:35:20.027Z,985.71
2018-12-09T02:36:20.035Z,985.57
2018-12-09T02:37:20.066Z,985.61
2018-12-09T02:38:41.109Z,985.54
2018-12-09T02:39:20.106Z,985.56
2018-12-09T02:40:20.124Z,985.54
2018-12-09T02:41:20.168Z,985.52
2018-12-09T02:42:20.172Z,985.52
2018-12-09T02:43:20.190Z,985.50
2018-12-09T02:44:41.240Z,985.43
2018-12-09T02:45:20.222Z,985.48
2018-12-09T02:46:20.246Z,985.43
2018-12-09T02:47:20.275Z,985.44
2018-12-09T02:48:20.323Z,985.38
2018-12-09T02:49:20.326Z,985.38
2018-12-09T02:50:41.356Z,985.40
2018-12-09T02:51:20.349Z,985.36
2018-12-09T02:52:20.375Z,985.35
2018-12-09T02:53:20.394Z,985.34
2018-12-09T02:54:20.439Z,985.31
2018-12-09T02:55:20.445Z,985.31
2018-12-09T02:56:41.497Z,985.29
2018-12-09T02:57:20.493Z,985.27
2018-12-09T02:58:20.511Z,985.31
2018-12-09T02:59:20.537Z,985.21
2018-12-09T03:00:20.544Z,985.21
2018-12-09T03:01:20.572Z,985.21
2018-12-09T03:02:41.617Z,985.21
2018-12-09T03:03:20.602Z,985.11
2018-12-09T03:04:20.644Z,985.16
2018-12-09T03:05:20.646Z,985.10
2018-12-09T03:06:20.668Z,985.11
2018-12-09T03:07:20.689Z,985.06
2018-12-09T03:08:41.736Z,985.04
2018-12-09T03:09:20.745Z,985.06
2018-12-09T03:10:20.748Z,985.06
2018-12-09T03:11:20.780Z,985.07
2018-12-09T03:12:20.794Z,985.03
2018-12-09T03:13:20.827Z,985.03
2018-12-09T03:14:41.848Z,984.98
2018-12-09T03:15:20.861Z,985.01
2018-12-09T03:16:20.876Z,984.94
2018-12-09T03:17:20.905Z,984.94
2018-12-09T03:18:20.918Z,984.97
2018-12-09T03:19:20.944Z,984.92
2018-12-09T03:20:41.981Z,984.96
2018-12-09T03:21:21.006Z,984.97
2018-12-09T03:22:21.015Z,984.97
2018-12-09T03:23:21.036Z,984.93
2018-12-09T03:24:21.071Z,984.95
2018-12-09T03:25:21.073Z,984.93
2018-12-09T03:26:42.115Z,984.90
2018-12-09T03:27:21.115Z,984.94
2018-12-09T03:28:21.135Z,984.96
2018-12-09T03:29:21.157Z,984.95
2018-12-09T03:30:21.196Z,984.91
2018-12-09T03:31:21.203Z,984.89
2018-12-09T03:32:42.240Z,984.89
2018-12-09T03:33:21.336Z,984.84
2018-12-09T03:34:21.299Z,984.83
2018-12-09T03:35:21.292Z,984.85
2018-12-09T03:36:21.313Z,984.79
2018-12-09T03:37:21.319Z,984.83
2018-12-09T03:38:42.351Z,984.75
2018-12-09T03:39:21.365Z,984.75
2018-12-09T03:40:21.383Z,984.76
2018-12-09T03:41:21.410Z,984.76
2018-12-09T03:42:21.428Z,984.75
2018-12-09T03:43:21.459Z,984.72
2018-12-09T03:44:42.508Z,984.74
2018-12-09T03:45:21.516Z,984.72
2018-12-09T03:46:21.529Z,984.79
2018-12-09T03:47:21.529Z,984.72
2018-12-09T03:48:21.570Z,984.69
2018-12-09T03:49:21.586Z,984.66
2018-12-09T03:50:42.613Z,984.68
2018-12-09T03:51:21.624Z,984.65
2018-12-09T03:52:21.632Z,984.71
2018-12-09T03:53:21.667Z,984.69
2018-12-09T03:54:21.681Z,984.68
2018-12-09T03:55:21.722Z,984.64
2018-12-09T03:56:42.763Z,984.61
2018-12-09T03:57:21.746Z,984.68
2018-12-09T03:58:21.783Z,984.63
2018-12-09T03:59:21.782Z,984.61
2018-12-09T04:00:21.825Z,984.59
2018-12-09T04:01:21.832Z,984.59
2018-12-09T04:02:42.868Z,984.60
2018-12-09T04:03:21.903Z,984.59
2018-12-09T04:04:21.893Z,984.57
2018-12-09T04:05:21.918Z,984.54
2018-12-09T04:06:21.934Z,984.53
2018-12-09T04:07:21.986Z,984.57
2018-12-09T04:08:43.018Z,984.57
2018-12-09T04:09:22.000Z,984.58
2018-12-09T04:10:22.035Z,984.59
2018-12-09T04:11:22.041Z,984.55
2018-12-09T04:12:22.086Z,984.57
2018-12-09T04:13:22.088Z,984.59
2018-12-09T04:14:43.123Z,984.61
2018-12-09T04:15:22.137Z,984.52
2018-12-09T04:16:22.148Z,984.54
2018-12-09T04:17:22.189Z,984.52
2018-12-09T04:18:22.193Z,984.53
2018-12-09T04:19:22.233Z,984.54
2018-12-09T04:20:43.257Z,984.58
2018-12-09T04:21:22.255Z,984.60
2018-12-09T04:22:22.282Z,984.54
2018-12-09T04:23:22.304Z,984.58
2018-12-09T04:24:22.333Z,984.53
2018-12-09T04:25:22.347Z,984.51
2018-12-09T04:26:43.385Z,984.46
2018-12-09T04:27:22.399Z,984.42
2018-12-09T04:28:22.418Z,984.51
2018-12-09T04:29:22.439Z,984.44
2018-12-09T04:30:22.442Z,984.46
2018-12-09T04:31:22.495Z,984.45
2018-12-09T04:32:43.518Z,984.37
2018-12-09T04:33:22.520Z,984.41
2018-12-09T04:34:22.545Z,984.39
2018-12-09T04:35:22.559Z,984.39
2018-12-09T04:36:22.595Z,984.38
2018-12-09T04:37:22.632Z,984.38
2018-12-09T04:38:43.638Z,984.40
2018-12-09T04:39:22.641Z,984.35
2018-12-09T04:40:22.661Z,984.39
2018-12-09T04:41:22.704Z,984.37
2018-12-09T04:42:22.706Z,984.37
2018-12-09T04:43:22.735Z,984.40
2018-12-09T04:44:43.782Z,984.38
2018-12-09T04:45:22.769Z,984.36
2018-12-09T04:46:22.793Z,984.34
2018-12-09T04:47:22.811Z,984.42
2018-12-09T04:48:22.876Z,984.33
2018-12-09T04:49:22.850Z,984.38
2018-12-09T04:50:43.901Z,984.37
2018-12-09T04:51:22.915Z,984.37
2018-12-09T04:52:22.920Z,984.38
2018-12-09T04:53:22.959Z,984.39
2018-12-09T04:54:22.959Z,984.36
2018-12-09T04:55:22.989Z,984.36
2018-12-09T04:56:44.035Z,984.40
2018-12-09T04:57:23.065Z,984.41
2018-12-09T04:58:23.056Z,984.41
2018-12-09T04:59:23.075Z,984.43
2018-12-09T05:00:23.104Z,984.40
2018-12-09T05:01:23.114Z,984.44
2018-12-09T05:02:44.151Z,984.37
2018-12-09T05:03:23.157Z,984.39
2018-12-09T05:04:23.169Z,984.38
2018-12-09T05:05:23.214Z,984.43
2018-12-09T05:06:23.214Z,984.41
2018-12-09T05:07:23.252Z,984.40
2018-12-09T05:08:44.294Z,984.43
2018-12-09T05:09:23.279Z,984.42
2018-12-09T05:10:23.324Z,984.44
2018-12-09T05:11:23.343Z,984.43
2018-12-09T05:12:23.375Z,984.49
2018-12-09T05:13:23.389Z,984.44
2018-12-09T05:14:44.413Z,984.46
2018-12-09T05:15:23.422Z,984.46
2018-12-09T05:16:23.481Z,984.47
2018-12-09T05:17:23.463Z,984.45
2018-12-09T05:18:23.484Z,984.47
2018-12-09T05:19:23.511Z,984.45
2018-12-09T05:20:44.553Z,984.49
2018-12-09T05:21:23.565Z,984.51
2018-12-09T05:22:23.570Z,984.52
2018-12-09T05:23:23.590Z,984.50
2018-12-09T05:24:23.618Z,984.54
2018-12-09T05:25:23.634Z,984.54
2018-12-09T05:26:44.669Z,984.55
2018-12-09T05:27:23.679Z,984.57
2018-12-09T05:28:23.716Z,984.55
2018-12-09T05:29:23.754Z,984.63
2018-12-09T05:30:23.738Z,984.65
2018-12-09T05:31:23.758Z,984.67
2018-12-09T05:32:44.806Z,984.70
2018-12-09T05:33:23.793Z,984.68
2018-12-09T05:34:23.827Z,984.69
2018-12-09T05:35:23.845Z,984.68
2018-12-09T05:36:23.877Z,984.65
2018-12-09T05:37:23.888Z,984.65
2018-12-09T05:38:44.928Z,984.68
2018-12-09T05:39:23.949Z,984.65
2018-12-09T05:40:23.944Z,984.60
2018-12-09T05:41:23.994Z,984.65
2018-12-09T05:42:24.001Z,984.69
2018-12-09T05:43:24.034Z,984.71
2018-12-09T05:44:45.051Z,984.73
2018-12-09T05:45:24.093Z,984.78
2018-12-09T05:46:24.085Z,984.71
2018-12-09T05:47:24.104Z,984.74
2018-12-09T05:48:24.123Z,984.68
2018-12-09T05:49:24.149Z,984.75
2018-12-09T05:50:45.193Z,984.75
2018-12-09T05:51:24.181Z,984.72
2018-12-09T05:52:24.201Z,984.77
2018-12-09T05:53:24.237Z,984.79
2018-12-09T05:54:24.249Z,984.83
2018-12-09T05:55:24.283Z,984.74
2018-12-09T05:56:45.340Z,984.80
2018-12-09T05:57:24.303Z,984.87
2018-12-09T05:58:24.349Z,984.79
2018-12-09T05:59:24.352Z,984.88
2018-12-09T06:00:24.391Z,984.88
2018-12-09T06:01:24.406Z,984.90
2018-12-09T06:02:45.428Z,984.85
2018-12-09T06:03:24.437Z,984.81
2018-12-09T06:04:24.458Z,984.85
2018-12-09T06:05:24.500Z,984.85
2018-12-09T06:06:24.506Z,984.91
2018-12-09T06:07:24.543Z,984.89
2018-12-09T06:08:45.590Z,984.93
2018-12-09T06:09:24.576Z,984.84
2018-12-09T06:10:24.602Z,984.90
2018-12-09T06:11:24.607Z,984.90
2018-12-09T06:12:24.647Z,984.93
2018-12-09T06:13:24.659Z,984.97
2018-12-09T06:14:45.695Z,984.92
2018-12-09T06:15:24.708Z,984.95
2018-12-09T06:16:24.717Z,984.90
2018-12-09T06:17:24.752Z,984.91
2018-12-09T06:18:24.796Z,984.94
2018-12-09T06:19:24.802Z,984.91
2018-12-09T06:20:45.840Z,984.93
2018-12-09T06:21:24.823Z,984.94
2018-12-09T06:22:24.851Z,984.92
2018-12-09T06:23:24.870Z,984.91
2018-12-09T06:24:24.906Z,985.05
2018-12-09T06:25:24.913Z,985.01
2018-12-09T06:26:45.946Z,985.03
2018-12-09T06:27:24.960Z,985.09
2018-12-09T06:28:24.968Z,985.17
2018-12-09T06:29:25.009Z,985.13
2018-12-09T06:30:25.017Z,985.19
2018-12-09T06:31:25.054Z,985.20
2018-12-09T06:32:46.084Z,985.17
2018-12-09T06:33:25.074Z,985.22
2018-12-09T06:34:25.112Z,985.26
2018-12-09T06:35:25.118Z,985.30
2018-12-09T06:36:25.187Z,985.36
2018-12-09T06:37:25.168Z,985.34
2018-12-09T06:38:46.203Z,985.36
2018-12-09T06:39:25.212Z,985.41
2018-12-09T06:40:25.232Z,985.46
2018-12-09T06:41:25.260Z,985.46
2018-12-09T06:42:25.270Z,985.45
2018-12-09T06:43:25.313Z,985.51
2018-12-09T06:44:46.342Z,985.52
2018-12-09T06:45:25.349Z,985.53
2018-12-09T06:46:25.362Z,985.57
2018-12-09T06:47:25.402Z,985.58
2018-12-09T06:48:25.414Z,985.63
2018-12-09T06:49:25.427Z,985.58
2018-12-09T06:50:46.455Z,985.59
2018-12-09T06:51:25.471Z,985.64
2018-12-09T06:52:25.480Z,985.60
2018-12-09T06:53:25.560Z,985.66
2018-12-09T06:54:25.596Z,985.65
2018-12-09T06:55:25.634Z,985.66
2018-12-09T06:56:46.588Z,985.74
2018-12-09T06:57:25.604Z,985.69
2018-12-09T06:58:25.617Z,985.75
2018-12-09T06:59:25.703Z,985.72
2018-12-09T07:00:25.679Z,985.77
2018-12-09T07:01:25.680Z,985.77
2018-12-09T07:02:46.714Z,985.80
2018-12-09T07:03:25.758Z,985.81
2018-12-09T07:04:25.753Z,985.83
2018-12-09T07:05:25.811Z,985.88
2018-12-09T07:06:25.823Z,985.94
2018-12-09T07:07:27.565Z,985.96
2018-12-09T07:08:46.853Z,985.98
2018-12-09T07:09:25.889Z,985.98
2018-12-09T07:10:25.905Z,985.99
2018-12-09T07:11:25.893Z,986.02
2018-12-09T07:12:26.028Z,986.04
2018-12-09T07:13:25.949Z,986.07
2018-12-09T07:14:46.974Z,986.04
2018-12-09T07:15:25.979Z,986.06
2018-12-09T07:16:25.993Z,986.09
2018-12-09T07:17:26.032Z,986.12
2018-12-09T07:18:26.071Z,986.17
2018-12-09T07:19:26.073Z,986.17
2018-12-09T07:20:47.117Z,986.18
2018-12-09T07:21:26.106Z,986.20
2018-12-09T07:22:26.129Z,986.15
2018-12-09T07:23:26.173Z,986.23
2018-12-09T07:24:26.185Z,986.24
2018-12-09T07:25:26.192Z,986.26
2018-12-09T07:26:47.239Z,986.24
2018-12-09T07:27:26.244Z,986.31
2018-12-09T07:28:26.262Z,986.34
2018-12-09T07:29:26.302Z,986.38
2018-12-09T07:30:26.296Z,986.42
2018-12-09T07:31:26.338Z,986.48
2018-12-09T07:32:47.362Z,986.38
2018-12-09T07:33:26.377Z,986.43
2018-12-09T07:34:26.396Z,986.43
2018-12-09T07:35:26.415Z,986.45
2018-12-09T07:36:26.442Z,986.41
2018-12-09T07:37:26.455Z,986.53
2018-12-09T07:38:47.482Z,986.52
2018-12-09T07:39:26.514Z,986.54
2018-12-09T07:40:26.529Z,986.55
2018-12-09T07:41:26.537Z,986.56
2018-12-09T07:42:26.562Z,986.68
2018-12-09T07:43:26.591Z,986.61
2018-12-09T07:44:47.626Z,986.64
2018-12-09T07:45:26.637Z,986.74
2018-12-09T07:46:26.669Z,986.68
2018-12-09T07:47:26.679Z,986.73
2018-12-09T07:48:26.685Z,986.77
2018-12-09T07:49:26.719Z,986.79
2018-12-09T07:50:47.800Z,986.85
2018-12-09T07:51:26.749Z,986.81
2018-12-09T07:52:26.796Z,986.85
2018-12-09T07:53:26.782Z,986.81
2018-12-09T07:54:26.809Z,986.85
2018-12-09T07:55:26.856Z,986.88
2018-12-09T07:56:47.878Z,986.89
2018-12-09T07:57:26.876Z,986.90
2018-12-09T07:58:26.918Z,986.93
2018-12-09T07:59:26.935Z,986.92
2018-12-09T08:00:26.930Z,986.91
2018-12-09T08:01:26.975Z,986.96
2018-12-09T08:02:48.009Z,987.00
2018-12-09T08:03:27.024Z,986.96
2018-12-09T08:04:27.030Z,987.01
2018-12-09T08:05:27.079Z,987.02
2018-12-09T08:06:27.065Z,987.03
2018-12-09T08:07:27.095Z,987.08
2018-12-09T08:08:48.155Z,987.10
2018-12-09T08:09:27.135Z,987.10
2018-12-09T08:10:27.171Z,987.10
2018-12-09T08:11:27.185Z,987.13
2018-12-09T08:12:27.193Z,987.14
2018-12-09T08:13:27.225Z,987.18
2018-12-09T08:14:48.282Z,987.15
2018-12-09T08:15:27.272Z,987.17
2018-12-09T08:16:27.289Z,987.17
2018-12-09T08:17:27.323Z,987.21
2018-12-09T08:18:27.409Z,987.19
2018-12-09T08:19:27.358Z,987.21
2018-12-09T08:20:48.413Z,987.16
2018-12-09T08:21:27.388Z,987.21
2018-12-09T08:22:27.404Z,987.32
2018-12-09T08:23:27.445Z,987.33
2018-12-09T08:24:27.454Z,987.30
2018-12-09T08:25:27.486Z,987.28
2018-12-09T08:26:48.511Z,987.32
2018-12-09T08:27:27.529Z,987.29
2018-12-09T08:28:27.616Z,987.35
2018-12-09T08:29:27.580Z,987.32
2018-12-09T08:30:27.629Z,987.37
2018-12-09T08:31:27.656Z,987.43
2018-12-09T08:32:48.662Z,987.41
2018-12-09T08:33:27.650Z,987.41
2018-12-09T08:34:27.676Z,987.38
2018-12-09T08:35:27.732Z,987.45
2018-12-09T08:36:27.735Z,987.50
2018-12-09T08:37:27.742Z,987.52
2018-12-09T08:38:48.777Z,987.56
2018-12-09T08:39:27.788Z,987.51
2018-12-09T08:40:27.804Z,987.56
2018-12-09T08:41:27.834Z,987.59
2018-12-09T08:42:27.857Z,987.61
2018-12-09T08:43:27.855Z,987.62
2018-12-09T08:44:48.938Z,987.59
2018-12-09T08:45:27.905Z,987.65
2018-12-09T08:46:27.922Z,987.60
2018-12-09T08:47:27.949Z,987.68
2018-12-09T08:48:27.982Z,987.67
2018-12-09T08:49:27.995Z,987.62
2018-12-09T08:50:49.040Z,987.66
2018-12-09T08:51:28.045Z,987.66
2018-12-09T08:52:28.063Z,987.72
2018-12-09T08:53:28.108Z,987.76
2018-12-09T08:54:28.096Z,987.80
2018-12-09T08:55:28.122Z,987.83
2018-12-09T08:56:49.171Z,987.91
2018-12-09T08:57:28.154Z,987.92
2018-12-09T08:58:28.226Z,987.89
2018-12-09T08:59:28.232Z,987.95
2018-12-09T09:00:28.277Z,987.96
2018-12-09T09:01:28.257Z,988.03
2018-12-09T09:02:49.286Z,987.93
2018-12-09T09:03:28.301Z,988.01
2018-12-09T09:04:28.312Z,987.99
2018-12-09T09:05:28.364Z,988.03
2018-12-09T09:06:28.357Z,988.06
2018-12-09T09:07:28.383Z,988.11
2018-12-09T09:08:49.436Z,988.06
2018-12-09T09:09:28.422Z,988.09
2018-12-09T09:10:28.550Z,988.04
2018-12-09T09:11:28.496Z,988.11
2018-12-09T09:12:28.531Z,988.14
2018-12-09T09:13:28.568Z,988.20
2018-12-09T09:14:49.613Z,988.20
2018-12-09T09:15:28.561Z,988.19
2018-12-09T09:16:28.562Z,988.13
2018-12-09T09:17:28.599Z,988.18
2018-12-09T09:18:28.606Z,988.26
2018-12-09T09:19:28.658Z,988.23
2018-12-09T09:20:49.696Z,988.27
2018-12-09T09:21:28.673Z,988.29
2018-12-09T09:22:28.706Z,988.29
2018-12-09T09:23:28.717Z,988.29
2018-12-09T09:24:28.741Z,988.30
2018-12-09T09:25:28.762Z,988.36
2018-12-09T09:26:49.794Z,988.35
2018-12-09T09:27:28.813Z,988.32
2018-12-09T09:28:28.822Z,988.39
2018-12-09T09:29:28.848Z,988.38
2018-12-09T09:30:28.868Z,988.35
2018-12-09T09:31:28.907Z,988.34
2018-12-09T09:32:49.943Z,988.44
2018-12-09T09:33:28.928Z,988.37
2018-12-09T09:34:28.964Z,988.43
2018-12-09T09:35:28.974Z,988.47
2018-12-09T09:36:29.004Z,988.52
2018-12-09T09:37:29.040Z,988.49
2018-12-09T09:38:50.105Z,988.51
2018-12-09T09:39:29.062Z,988.50
2018-12-09T09:40:29.072Z,988.53
2018-12-09T09:41:29.142Z,988.53
2018-12-09T09:42:29.122Z,988.50
2018-12-09T09:43:29.174Z,988.52
2018-12-09T09:44:50.194Z,988.57
2018-12-09T09:45:29.195Z,988.50
2018-12-09T09:46:29.220Z,988.52
2018-12-09T09:47:29.217Z,988.58
2018-12-09T09:48:29.263Z,988.59
2018-12-09T09:49:29.315Z,988.55
2018-12-09T09:50:50.306Z,988.58
2018-12-09T09:51:29.318Z,988.61
2018-12-09T09:52:29.352Z,988.61
2018-12-09T09:53:29.406Z,988.63
2018-12-09T09:54:29.371Z,988.60
2018-12-09T09:55:29.433Z,988.62
2018-12-09T09:56:50.440Z,988.70
2018-12-09T09:57:29.438Z,988.72
2018-12-09T09:58:29.490Z,988.74
2018-12-09T09:59:29.481Z,988.72
2018-12-09T10:00:29.523Z,988.83
2018-12-09T10:01:29.525Z,988.74
2018-12-09T10:02:50.573Z,988.83
2018-12-09T10:03:29.575Z,988.83
2018-12-09T10:04:29.605Z,988.83
2018-12-09T10:05:29.625Z,988.81
2018-12-09T10:06:29.630Z,988.84
2018-12-09T10:07:29.662Z,988.91
2018-12-09T10:08:50.706Z,988.85
2018-12-09T10:09:29.724Z,988.84
2018-12-09T10:10:29.726Z,988.80
2018-12-09T10:11:29.767Z,988.83
2018-12-09T10:12:29.766Z,988.83
2018-12-09T10:13:29.780Z,988.86
2018-12-09T10:14:50.820Z,988.82
2018-12-09T10:15:29.861Z,988.75
2018-12-09T10:16:29.862Z,988.80
2018-12-09T10:17:29.899Z,988.82
2018-12-09T10:18:29.911Z,988.85
2018-12-09T10:19:29.918Z,988.84
2018-12-09T10:20:50.946Z,988.86
2018-12-09T10:21:29.959Z,988.84
2018-12-09T10:22:30.006Z,988.83
2018-12-09T10:23:29.995Z,988.79
2018-12-09T10:24:30.021Z,988.82
2018-12-09T10:25:30.079Z,988.77
2018-12-09T10:26:51.095Z,988.78
2018-12-09T10:27:30.088Z,988.74
2018-12-09T10:28:30.120Z,988.78
2018-12-09T10:29:30.130Z,988.80
2018-12-09T10:30:30.168Z,988.82
2018-12-09T10:31:30.174Z,988.86
2018-12-09T10:32:52.675Z,988.82
2018-12-09T10:33:30.939Z,988.85
2018-12-09T10:34:38.585Z,988.86
2018-12-09T10:35:30.254Z,988.84
2018-12-09T10:36:30.278Z,988.79
2018-12-09T10:37:30.318Z,988.75
2018-12-09T10:38:51.347Z,988.79
2018-12-09T10:39:30.335Z,988.82
2018-12-09T10:40:30.371Z,988.83
2018-12-09T10:41:30.399Z,988.80
2018-12-09T10:42:30.412Z,988.83
2018-12-09T10:43:30.424Z,988.86
2018-12-09T10:44:51.475Z,988.84
2018-12-09T10:45:30.503Z,988.87
2018-12-09T10:46:30.503Z,988.83
2018-12-09T10:47:30.518Z,988.84
2018-12-09T10:48:30.542Z,988.80
2018-12-09T10:49:31.255Z,988.87
2018-12-09T10:50:51.613Z,988.92
2018-12-09T10:51:30.625Z,988.87
2018-12-09T10:52:30.623Z,988.91
2018-12-09T10:53:31.677Z,988.93
2018-12-09T10:54:30.921Z,988.91
2018-12-09T10:55:31.490Z,988.84
2018-12-09T10:56:51.968Z,988.93
2018-12-09T10:57:31.483Z,988.94
2018-12-09T10:58:31.339Z,989.01
2018-12-09T10:59:31.155Z,988.98
2018-12-09T11:00:30.882Z,989.00
2018-12-09T11:01:30.935Z,988.97
2018-12-09T11:02:51.890Z,989.00
2018-12-09T11:03:30.957Z,989.01
2018-12-09T11:04:30.899Z,989.02
2018-12-09T11:05:31.038Z,989.02
2018-12-09T11:06:31.031Z,989.03
2018-12-09T11:07:30.983Z,989.00
2018-12-09T11:08:52.055Z,989.00
2018-12-09T11:09:31.095Z,989.06
2018-12-09T11:10:31.051Z,989.07
2018-12-09T11:11:31.067Z,989.09
2018-12-09T11:12:31.133Z,989.06
2018-12-09T11:13:31.091Z,989.24
2018-12-09T11:14:52.206Z,989.09
2018-12-09T11:15:31.159Z,989.08
2018-12-09T11:16:31.145Z,989.10
2018-12-09T11:17:31.213Z,989.11
2018-12-09T11:18:31.199Z,989.15
2018-12-09T11:19:31.250Z,989.12
2018-12-09T11:20:52.265Z,989.12
2018-12-09T11:21:31.358Z,989.07
2018-12-09T11:22:31.331Z,989.15
2018-12-09T11:23:31.314Z,989.12
2018-12-09T11:24:31.321Z,989.14
2018-12-09T11:25:31.361Z,989.17
2018-12-09T11:26:52.418Z,989.11
2018-12-09T11:27:31.407Z,989.13
2018-12-09T11:28:31.424Z,989.09
2018-12-09T11:29:31.432Z,989.17
2018-12-09T11:30:31.585Z,989.24
2018-12-09T11:31:31.552Z,989.25
2018-12-09T11:32:52.578Z,989.13
2018-12-09T11:33:31.530Z,989.18
2018-12-09T11:34:31.566Z,989.19
2018-12-09T11:35:31.554Z,989.20
2018-12-09T11:36:31.609Z,989.04
2018-12-09T11:37:31.609Z,989.13
2018-12-09T11:38:52.656Z,989.12
2018-12-09T11:39:31.668Z,989.07
2018-12-09T11:40:31.680Z,989.10
2018-12-09T11:41:31.704Z,989.03
2018-12-09T11:42:31.739Z,989.11
2018-12-09T11:43:31.731Z,989.08
2018-12-09T11:44:52.779Z,989.11
2018-12-09T11:45:31.773Z,989.05
2018-12-09T11:46:31.801Z,989.06
2018-12-09T11:47:31.823Z,989.08
2018-12-09T11:48:31.868Z,989.06
2018-12-09T11:49:31.876Z,989.05
2018-12-09T11:50:52.918Z,989.08
2018-12-09T11:51:31.931Z,989.05
2018-12-09T11:52:31.941Z,989.12
2018-12-09T11:53:31.943Z,989.08
2018-12-09T11:54:31.987Z,989.08
2018-12-09T11:55:32.009Z,989.14
2018-12-09T11:56:53.059Z,989.15
2018-12-09T11:57:32.040Z,989.15
2018-12-09T11:58:32.074Z,989.11
2018-12-09T11:59:32.079Z,989.11
2018-12-09T12:00:32.122Z,989.15
2018-12-09T12:01:32.156Z,989.19
2018-12-09T12:02:53.169Z,989.21
2018-12-09T12:03:32.163Z,989.15
2018-12-09T12:04:32.199Z,989.17
2018-12-09T12:05:32.214Z,989.17
2018-12-09T12:06:32.316Z,989.19
2018-12-09T12:07:32.314Z,989.17
2018-12-09T12:08:53.299Z,989.18
2018-12-09T12:09:32.291Z,989.17
2018-12-09T12:10:32.324Z,989.13
2018-12-09T12:11:32.373Z,989.12
2018-12-09T12:12:32.432Z,989.21
2018-12-09T12:13:32.397Z,989.18
2018-12-09T12:14:53.496Z,989.19
2018-12-09T12:15:32.437Z,989.19
2018-12-09T12:16:32.616Z,989.19
2018-12-09T12:17:32.477Z,989.22
2018-12-09T12:18:32.487Z,989.21
2018-12-09T12:19:32.516Z,989.20
2018-12-09T12:20:53.573Z,989.27
2018-12-09T12:21:32.583Z,989.26
2018-12-09T12:22:32.576Z,989.28
2018-12-09T12:23:32.593Z,989.27
2018-12-09T12:24:32.642Z,989.31
2018-12-09T12:25:32.648Z,989.33
2018-12-09T12:26:53.680Z,989.31
2018-12-09T12:27:32.693Z,989.33
2018-12-09T12:28:32.701Z,989.35